createdAt,value
2022-12-20T00:02:04.935Z,2.40
2022-12-20T00:04:32.750Z,1.60
2022-12-20T00:07:00.585Z,2.10
2022-12-20T00:09:29.052Z,1.95
2022-12-20T00:11:58.195Z,1.63
2022-12-20T00:14:25.945Z,2.20
2022-12-20T00:16:53.795Z,1.58
2022-12-20T00:19:21.545Z,1.70
2022-12-20T00:21:49.287Z,1.50
2022-12-20T00:24:22.225Z,1.70
2022-12-20T00:26:53.495Z,1.70
2022-12-20T00:29:22.653Z,1.75
2022-12-20T00:31:50.577Z,1.40
2022-12-20T00:34:18.617Z,1.90
2022-12-20T00:36:46.384Z,1.70
2022-12-20T00:39:14.188Z,1.73
2022-12-20T00:41:41.993Z,1.55
2022-12-20T00:44:09.713Z,1.67
2022-12-20T00:46:39.195Z,1.75
2022-12-20T00:49:07.454Z,1.55
2022-12-20T00:51:35.286Z,1.52
2022-12-20T00:54:03.023Z,1.50
2022-12-20T00:56:30.852Z,1.40
2022-12-20T00:58:59.529Z,1.40
2022-12-20T01:01:30.351Z,1.40
2022-12-20T01:04:00.585Z,1.40
2022-12-20T01:06:29.022Z,1.60
2022-12-20T01:08:57.570Z,1.50
2022-12-20T01:11:27.390Z,1.23
2022-12-20T01:13:57.259Z,1.50
2022-12-20T01:16:27.087Z,1.42
2022-12-20T01:18:55.079Z,1.25
2022-12-20T01:21:26.365Z,1.92
2022-12-20T01:23:54.808Z,1.50
2022-12-20T01:26:23.752Z,1.48
2022-12-20T01:28:54.189Z,1.48
2022-12-20T01:31:22.392Z,1.67
2022-12-20T01:33:51.133Z,1.27
2022-12-20T01:36:20.675Z,1.17
2022-12-20T01:38:49.755Z,1.50
2022-12-20T01:41:19.090Z,1.35
2022-12-20T01:43:50.970Z,1.73
2022-12-20T01:46:19.918Z,1.50
2022-12-20T01:48:52.007Z,1.65
2022-12-20T01:51:20.335Z,1.40
2022-12-20T01:53:50.130Z,1.67
2022-12-20T01:56:17.876Z,1.13
2022-12-20T01:58:47.480Z,1.48
2022-12-20T02:01:15.209Z,1.80
2022-12-20T02:03:43.687Z,1.55
2022-12-20T02:06:18.074Z,1.75
2022-12-20T02:08:47.538Z,1.58
2022-12-20T02:11:29.744Z,1.67
2022-12-20T02:14:06.292Z,1.75
2022-12-20T02:16:45.679Z,2.00
2022-12-20T02:19:26.574Z,1.80
2022-12-20T02:21:56.597Z,1.73
2022-12-20T02:24:42.592Z,1.88
2022-12-20T02:27:28.001Z,1.92
2022-12-20T02:30:06.754Z,1.70
2022-12-20T02:32:38.408Z,1.70
2022-12-20T02:35:08.657Z,2.10
2022-12-20T02:37:36.992Z,2.03
2022-12-20T02:40:06.292Z,1.42
2022-12-20T02:42:34.711Z,1.90
2022-12-20T02:45:16.187Z,1.90
2022-12-20T02:47:50.321Z,1.90
2022-12-20T02:50:21.577Z,1.92
2022-12-20T02:52:49.923Z,2.20
2022-12-20T02:55:18.938Z,2.05
2022-12-20T02:57:58.012Z,1.90
2022-12-20T03:00:34.166Z,2.42
2022-12-20T03:03:19.920Z,1.70
2022-12-20T03:05:48.964Z,2.30
2022-12-20T03:08:20.237Z,2.30
2022-12-20T03:10:50.183Z,2.53
2022-12-20T03:13:18.034Z,1.88
2022-12-20T03:16:04.279Z,2.00
2022-12-20T03:18:32.021Z,3.28
2022-12-20T03:20:59.816Z,1.75
2022-12-20T03:23:27.729Z,2.20
2022-12-20T03:25:55.531Z,2.25
2022-12-20T03:28:31.515Z,2.13
2022-12-20T03:30:59.351Z,2.25
2022-12-20T03:33:28.537Z,2.40
2022-12-20T03:35:59.695Z,2.38
2022-12-20T03:38:27.618Z,2.05
2022-12-20T03:40:55.387Z,2.10
2022-12-20T03:43:23.831Z,1.98
2022-12-20T03:45:51.652Z,2.10
2022-12-20T03:48:20.188Z,2.10
2022-12-20T03:50:50.393Z,2.20
2022-12-20T03:53:18.281Z,2.28
2022-12-20T03:55:46.127Z,2.22
2022-12-20T03:58:14.945Z,2.42
2022-12-20T04:00:43.216Z,2.13
2022-12-20T04:03:33.221Z,1.90
2022-12-20T04:06:02.383Z,2.22
2022-12-20T04:08:30.169Z,2.60
2022-12-20T04:11:15.544Z,2.40
2022-12-20T04:13:50.182Z,2.60
2022-12-20T04:16:22.018Z,2.15
2022-12-20T04:18:50.075Z,2.60
2022-12-20T04:21:22.943Z,2.10
2022-12-20T04:23:52.512Z,2.08
2022-12-20T04:26:20.578Z,2.35
2022-12-20T04:28:48.759Z,2.55
2022-12-20T04:31:23.283Z,2.33
2022-12-20T04:33:52.525Z,2.53
2022-12-20T04:36:22.738Z,2.28
2022-12-20T04:38:52.873Z,2.13
2022-12-20T04:41:23.670Z,2.03
2022-12-20T04:44:02.221Z,2.20
2022-12-20T04:46:36.541Z,2.33
2022-12-20T04:49:05.931Z,2.00
2022-12-20T04:51:37.212Z,2.47
2022-12-20T04:54:05.769Z,2.35
2022-12-20T04:56:42.028Z,2.20
2022-12-20T04:59:12.573Z,2.35
2022-12-20T05:01:42.963Z,3.03
2022-12-20T05:04:12.046Z,2.50
2022-12-20T05:06:41.380Z,2.40
2022-12-20T05:09:09.291Z,2.50
2022-12-20T05:11:37.104Z,2.40
2022-12-20T05:14:08.566Z,2.30
2022-12-20T05:16:37.483Z,2.30
2022-12-20T05:19:07.376Z,3.03
2022-12-20T05:21:58.756Z,2.93
2022-12-20T05:24:44.154Z,2.40
2022-12-20T05:27:38.140Z,3.37
2022-12-20T05:30:07.571Z,2.90
2022-12-20T05:32:35.424Z,2.90
2022-12-20T05:35:03.275Z,3.03
2022-12-20T05:37:33.657Z,2.70
2022-12-20T05:40:10.426Z,2.73
2022-12-20T05:42:38.646Z,3.27
2022-12-20T05:45:08.028Z,3.40
2022-12-20T05:47:44.733Z,3.20
2022-12-20T05:50:18.560Z,2.57
2022-12-20T05:53:11.667Z,2.93
2022-12-20T05:55:45.791Z,2.77
2022-12-20T05:58:14.368Z,2.63
2022-12-20T06:00:51.650Z,2.70
2022-12-20T06:03:20.413Z,2.93
2022-12-20T06:05:48.283Z,2.97
2022-12-20T06:08:24.572Z,3.40
2022-12-20T06:10:53.630Z,3.40
2022-12-20T06:13:22.861Z,2.93
2022-12-20T06:15:53.418Z,2.90
2022-12-20T06:18:21.895Z,3.30
2022-12-20T06:20:52.514Z,2.90
2022-12-20T06:23:24.961Z,2.90
2022-12-20T06:26:04.363Z,2.97
2022-12-20T06:28:35.227Z,2.80
2022-12-20T06:31:03.585Z,3.60
2022-12-20T06:33:51.701Z,2.53
2022-12-20T06:36:22.071Z,2.73
2022-12-20T06:38:51.511Z,2.87
2022-12-20T06:41:19.457Z,2.60
2022-12-20T06:43:47.461Z,2.80
2022-12-20T06:46:15.339Z,2.50
2022-12-20T06:48:44.911Z,3.20
2022-12-20T06:51:13.722Z,2.70
2022-12-20T06:53:41.618Z,2.40
2022-12-20T06:56:10.864Z,2.70
2022-12-20T06:58:38.577Z,2.08
2022-12-20T07:01:06.804Z,2.45
2022-12-20T07:03:34.616Z,2.20
2022-12-20T07:06:02.380Z,2.43
2022-12-20T07:08:30.146Z,2.13
2022-12-20T07:10:57.934Z,2.10
2022-12-20T07:13:27.052Z,2.70
2022-12-20T07:15:59.240Z,1.97
2022-12-20T07:18:27.100Z,2.50
2022-12-20T07:20:54.849Z,2.42
2022-12-20T07:23:22.657Z,1.93
2022-12-20T07:25:55.234Z,2.23
2022-12-20T07:28:23.640Z,2.65
2022-12-20T07:30:55.618Z,2.50
2022-12-20T07:33:23.415Z,2.23
2022-12-20T07:35:54.762Z,2.28
2022-12-20T07:38:22.831Z,1.90
2022-12-20T07:40:50.650Z,2.10
2022-12-20T07:43:18.418Z,2.45
2022-12-20T07:45:47.493Z,2.13
2022-12-20T07:48:21.600Z,2.08
2022-12-20T07:50:49.886Z,1.63
2022-12-20T07:53:17.946Z,2.35
2022-12-20T07:55:45.776Z,1.97
2022-12-20T07:58:14.637Z,1.83
2022-12-20T08:00:42.492Z,2.55
2022-12-20T08:03:15.472Z,1.60
2022-12-20T08:05:47.750Z,2.05
2022-12-20T08:08:16.212Z,1.70
2022-12-20T08:10:44.743Z,1.80
2022-12-20T08:13:12.504Z,1.67
2022-12-20T08:15:40.266Z,2.13
2022-12-20T08:18:08.115Z,2.05
2022-12-20T08:20:35.824Z,2.05
2022-12-20T08:23:05.655Z,1.83
2022-12-20T08:25:41.298Z,1.80
2022-12-20T08:28:09.789Z,1.80
2022-12-20T08:30:37.972Z,2.25
2022-12-20T08:33:06.427Z,1.83
2022-12-20T08:35:34.201Z,1.95
2022-12-20T08:38:02.068Z,2.10
2022-12-20T08:40:31.571Z,1.95
2022-12-20T08:43:02.406Z,2.03
2022-12-20T08:45:34.379Z,1.88
2022-12-20T08:48:02.110Z,2.08
2022-12-20T08:50:29.861Z,1.85
2022-12-20T08:52:57.599Z,1.77
2022-12-20T08:55:29.093Z,1.77
2022-12-20T08:57:58.831Z,1.98
2022-12-20T09:00:26.604Z,1.77
2022-12-20T09:02:55.078Z,1.50
2022-12-20T09:05:23.003Z,1.73
2022-12-20T09:07:50.724Z,1.55
2022-12-20T09:10:18.451Z,1.48
2022-12-20T09:12:46.151Z,1.52
2022-12-20T09:15:15.289Z,1.60
2022-12-20T09:17:43.013Z,1.80
2022-12-20T09:20:11.473Z,1.73
2022-12-20T09:22:40.067Z,1.60
2022-12-20T09:25:08.801Z,1.90
2022-12-20T09:27:36.561Z,1.75
2022-12-20T09:30:04.895Z,1.83
2022-12-20T09:32:34.007Z,1.50
2022-12-20T09:35:01.759Z,2.03
2022-12-20T09:37:31.103Z,1.67
2022-12-20T09:39:58.986Z,1.70
2022-12-20T09:42:28.498Z,1.67
2022-12-20T09:45:02.369Z,1.85
2022-12-20T09:47:30.148Z,1.70
2022-12-20T09:49:59.293Z,1.75
2022-12-20T09:52:35.947Z,1.73
2022-12-20T09:55:13.934Z,1.60
2022-12-20T09:57:53.425Z,1.70
2022-12-20T10:00:22.223Z,1.80
2022-12-20T10:03:06.597Z,1.90
2022-12-20T10:05:43.896Z,1.83
2022-12-20T10:08:17.593Z,1.67
2022-12-20T10:10:55.102Z,1.80
2022-12-20T10:13:42.029Z,1.63
2022-12-20T10:16:29.272Z,1.60
2022-12-20T10:19:05.409Z,1.27
2022-12-20T10:21:42.834Z,1.52
2022-12-20T10:24:15.251Z,1.30
2022-12-20T10:26:43.408Z,1.30
2022-12-20T10:29:11.176Z,1.48
2022-12-20T10:31:39.848Z,1.52
2022-12-20T10:34:07.924Z,1.40
2022-12-20T10:36:37.962Z,1.60
2022-12-20T10:39:07.031Z,1.60
2022-12-20T10:41:35.820Z,1.60
2022-12-20T10:44:05.814Z,1.65
2022-12-20T10:46:38.948Z,1.50
2022-12-20T10:49:31.023Z,1.50
2022-12-20T10:52:02.901Z,1.45
2022-12-20T10:54:33.457Z,1.60
2022-12-20T10:57:02.653Z,1.60
2022-12-20T10:59:34.441Z,1.50
2022-12-20T11:02:02.409Z,1.55
2022-12-20T11:04:32.204Z,1.33
2022-12-20T11:07:02.019Z,1.40
2022-12-20T11:09:31.962Z,1.33
2022-12-20T11:12:05.899Z,1.38
2022-12-20T11:14:39.193Z,1.40
2022-12-20T11:17:18.866Z,1.17
2022-12-20T11:19:59.349Z,1.40
2022-12-20T11:22:35.911Z,1.38
2022-12-20T11:25:14.423Z,1.35
2022-12-20T11:27:48.675Z,1.42
2022-12-20T11:30:19.643Z,1.55
2022-12-20T11:33:05.963Z,1.30
2022-12-20T11:35:42.907Z,1.50
2022-12-20T11:38:18.957Z,1.30
2022-12-20T11:40:52.887Z,1.15
2022-12-20T11:43:28.768Z,1.40
2022-12-20T11:46:08.588Z,1.52
2022-12-20T11:49:01.295Z,1.15
2022-12-20T11:51:35.290Z,1.25
2022-12-20T11:54:11.883Z,1.40
2022-12-20T11:56:44.659Z,1.30
2022-12-20T11:59:19.280Z,1.15
2022-12-20T12:01:51.455Z,1.60
2022-12-20T12:04:22.620Z,1.30
2022-12-20T12:06:54.831Z,1.27
2022-12-20T12:09:28.659Z,1.40
2022-12-20T12:12:07.428Z,1.60
2022-12-20T12:14:51.490Z,1.20
2022-12-20T12:17:25.946Z,1.33
2022-12-20T12:19:55.923Z,0.88
2022-12-20T12:22:28.385Z,1.40
2022-12-20T12:24:59.405Z,1.50
2022-12-20T12:27:29.300Z,1.40
2022-12-20T12:29:59.120Z,1.00
2022-12-20T12:32:31.603Z,1.17
2022-12-20T12:35:11.946Z,1.23
2022-12-20T12:38:11.504Z,1.13
2022-12-20T12:40:54.035Z,1.42
2022-12-20T12:43:40.186Z,1.52
2022-12-20T12:46:14.424Z,1.45
2022-12-20T12:48:44.654Z,1.40
2022-12-20T12:51:13.473Z,1.40
2022-12-20T12:53:44.413Z,1.30
2022-12-20T12:56:46.719Z,1.33
2022-12-20T12:59:41.592Z,1.45
2022-12-20T13:02:34.022Z,1.38
2022-12-20T13:05:26.278Z,1.13
2022-12-20T13:07:54.951Z,1.50
2022-12-20T13:10:58.367Z,1.95
2022-12-20T13:13:27.657Z,1.60
2022-12-20T13:16:14.832Z,1.25
2022-12-20T13:19:06.255Z,1.33
2022-12-20T13:21:38.595Z,1.55
2022-12-20T13:24:37.252Z,1.35
2022-12-20T13:27:15.655Z,1.85
2022-12-20T13:30:02.424Z,1.60
2022-12-20T13:32:56.006Z,1.40
2022-12-20T13:35:45.816Z,1.80
2022-12-20T13:38:37.474Z,1.35
2022-12-20T13:41:13.833Z,1.70
2022-12-20T13:43:44.383Z,1.30
2022-12-20T13:46:16.482Z,1.30
2022-12-20T13:48:51.462Z,1.30
2022-12-20T13:51:21.473Z,1.40
2022-12-20T13:53:53.884Z,1.20
2022-12-20T13:56:34.082Z,1.52
2022-12-20T13:59:06.021Z,1.50
2022-12-20T14:01:36.180Z,1.67
2022-12-20T14:04:07.323Z,1.52
2022-12-20T14:06:35.833Z,1.63
2022-12-20T14:09:05.700Z,1.60
2022-12-20T14:11:33.506Z,1.35
2022-12-20T14:14:03.308Z,1.65
2022-12-20T14:16:32.148Z,1.30
2022-12-20T14:19:05.496Z,1.50
2022-12-20T14:21:36.105Z,1.55
2022-12-20T14:24:04.514Z,1.50
2022-12-20T14:26:37.163Z,1.65
2022-12-20T14:29:11.407Z,1.60
2022-12-20T14:31:41.773Z,1.45
2022-12-20T14:34:17.545Z,1.67
2022-12-20T14:36:47.316Z,1.75
2022-12-20T14:39:26.114Z,1.40
2022-12-20T14:41:58.093Z,1.50
2022-12-20T14:44:27.338Z,1.90
2022-12-20T14:46:56.777Z,1.60
2022-12-20T14:49:30.072Z,1.42
2022-12-20T14:52:07.744Z,1.70
2022-12-20T14:57:26.117Z,1.75
2022-12-20T15:00:02.841Z,1.73
2022-12-20T15:02:41.203Z,1.50
2022-12-20T15:05:39.044Z,1.92
2022-12-20T15:08:18.566Z,1.98
2022-12-20T15:10:55.089Z,2.00
2022-12-20T15:13:25.402Z,1.90
2022-12-20T15:15:53.216Z,1.70
2022-12-20T15:18:21.691Z,2.30
2022-12-20T15:20:58.365Z,2.30
2022-12-20T15:23:26.128Z,1.70
2022-12-20T15:25:54.014Z,1.98
2022-12-20T15:28:23.769Z,1.75
2022-12-20T15:30:52.631Z,2.58
2022-12-20T15:33:23.159Z,3.63
2022-12-20T15:35:52.878Z,1.90
2022-12-20T15:38:40.686Z,2.10
2022-12-20T15:41:14.855Z,2.40
2022-12-20T15:43:42.599Z,2.65
2022-12-20T15:46:10.586Z,3.97
2022-12-20T15:48:38.429Z,4.60
2022-12-20T15:51:16.352Z,3.33
2022-12-20T15:53:44.255Z,3.42
2022-12-20T15:56:18.693Z,2.90
2022-12-20T15:58:47.380Z,2.92
2022-12-20T16:01:17.548Z,2.95
2022-12-20T16:03:45.876Z,2.80
2022-12-20T16:06:15.382Z,2.50
2022-12-20T16:08:43.501Z,2.75
2022-12-20T16:11:20.382Z,3.55
2022-12-20T16:13:48.327Z,3.05
2022-12-20T16:16:18.217Z,2.83
2022-12-20T16:18:46.210Z,2.85
2022-12-20T16:21:18.690Z,2.97
2022-12-20T16:23:46.774Z,2.88
2022-12-20T16:26:16.078Z,3.00
2022-12-20T16:28:44.419Z,3.50
2022-12-20T16:31:21.639Z,2.63
2022-12-20T16:33:49.471Z,2.50
2022-12-20T16:36:18.607Z,2.30
2022-12-20T16:38:46.330Z,2.53
2022-12-20T16:41:15.540Z,2.13
2022-12-20T16:43:43.322Z,2.47
2022-12-20T16:46:13.306Z,2.13
2022-12-20T16:48:41.744Z,2.63
2022-12-20T16:51:26.055Z,2.97
2022-12-20T16:54:17.955Z,2.78
2022-12-20T16:56:42.061Z,3.30
2022-12-20T16:59:25.117Z,2.70
2022-12-20T17:01:54.547Z,2.78
2022-12-20T17:04:26.638Z,2.72
2022-12-20T17:06:55.871Z,2.78
2022-12-20T17:12:15.463Z,2.17
2022-12-20T17:14:43.266Z,2.43
2022-12-20T17:17:11.048Z,2.08
2022-12-20T17:19:39.326Z,2.50
2022-12-20T17:22:23.803Z,2.85
2022-12-20T17:24:51.597Z,2.45
2022-12-20T17:27:19.472Z,2.38
2022-12-20T17:29:47.183Z,2.70
2022-12-20T17:32:20.709Z,2.45
2022-12-20T17:34:48.791Z,2.75
2022-12-20T17:37:18.628Z,2.42
2022-12-20T17:39:46.445Z,2.67
2022-12-20T17:42:14.456Z,2.85
2022-12-20T17:44:42.290Z,3.03
2022-12-20T17:47:11.492Z,2.92
2022-12-20T17:49:39.441Z,2.78
2022-12-20T17:52:07.206Z,3.05
2022-12-20T17:54:40.041Z,2.95
2022-12-20T17:57:13.938Z,2.72
2022-12-20T17:59:42.339Z,2.63
2022-12-20T18:02:21.235Z,2.78
2022-12-20T18:04:49.197Z,2.67
2022-12-20T18:07:17.094Z,2.78
2022-12-20T18:09:47.377Z,2.67
2022-12-20T18:12:15.219Z,2.75
2022-12-20T18:14:42.991Z,3.25
2022-12-20T18:17:10.914Z,2.97
2022-12-20T18:19:39.553Z,2.90
2022-12-20T18:22:07.451Z,2.45
2022-12-20T18:24:35.239Z,2.80
2022-12-20T18:27:04.638Z,2.92
2022-12-20T18:29:32.563Z,2.70
2022-12-20T18:32:00.475Z,2.55
2022-12-20T18:34:28.241Z,3.30
2022-12-20T18:36:56.066Z,3.08
2022-12-20T18:39:23.867Z,3.05
2022-12-20T18:41:51.744Z,2.88
2022-12-20T18:44:21.041Z,3.00
2022-12-20T18:46:48.889Z,2.72
2022-12-20T18:49:16.763Z,2.70
2022-12-20T18:51:44.649Z,2.33
2022-12-20T18:54:14.071Z,2.65
2022-12-20T18:56:42.150Z,2.72
2022-12-20T18:59:12.714Z,2.25
2022-12-20T19:01:43.580Z,3.58
2022-12-20T19:04:12.002Z,2.60
2022-12-20T19:06:40.074Z,2.40
2022-12-20T19:09:09.523Z,2.50
2022-12-20T19:11:37.551Z,2.70
2022-12-20T19:14:05.422Z,2.53
2022-12-20T19:16:33.553Z,2.53
2022-12-20T19:19:03.762Z,2.72
2022-12-20T19:21:33.137Z,2.45
2022-12-20T19:24:05.013Z,2.40
2022-12-20T19:26:32.872Z,2.60
2022-12-20T19:29:00.691Z,3.28
2022-12-20T19:31:30.661Z,2.80
2022-12-20T19:34:00.348Z,2.80
2022-12-20T19:36:31.281Z,2.80
2022-12-20T19:39:01.270Z,3.05
2022-12-20T19:41:30.890Z,3.72
2022-12-20T19:43:58.874Z,2.85
2022-12-20T19:46:29.782Z,2.90
2022-12-20T19:48:58.879Z,2.83
2022-12-20T19:51:29.185Z,3.05
2022-12-20T19:53:57.887Z,2.80
2022-12-20T19:56:27.300Z,2.83
2022-12-20T19:58:56.046Z,2.88
2022-12-20T20:01:26.161Z,2.85
2022-12-20T20:03:54.327Z,2.53
2022-12-20T20:06:22.588Z,2.30
2022-12-20T20:08:51.796Z,2.40
2022-12-20T20:11:20.950Z,2.47
2022-12-20T20:13:49.005Z,2.90
2022-12-20T20:16:21.888Z,2.45
2022-12-20T20:18:50.106Z,2.92
2022-12-20T20:21:21.177Z,2.70
2022-12-20T20:23:50.930Z,2.63
2022-12-20T20:26:20.753Z,3.00
2022-12-20T20:28:48.638Z,2.67
2022-12-20T20:31:17.846Z,2.72
2022-12-20T20:33:46.753Z,3.93
2022-12-20T20:36:16.560Z,3.10
2022-12-20T20:38:44.517Z,5.70
2022-12-20T20:41:14.945Z,2.80
2022-12-20T20:43:43.393Z,2.30
2022-12-20T20:46:13.236Z,2.60
2022-12-20T20:48:41.559Z,2.30
2022-12-20T20:51:09.719Z,2.17
2022-12-20T20:53:37.835Z,2.10
2022-12-20T20:56:06.685Z,2.20
2022-12-20T20:58:36.593Z,2.17
2022-12-20T21:01:08.302Z,2.10
2022-12-20T21:03:36.420Z,1.88
2022-12-20T21:08:52.254Z,2.20
2022-12-20T21:11:20.174Z,2.20
2022-12-20T21:13:49.477Z,2.00
2022-12-20T21:16:20.378Z,1.92
2022-12-20T21:18:51.784Z,1.65
2022-12-20T21:21:20.256Z,1.58
2022-12-20T21:23:49.034Z,1.98
2022-12-20T21:26:18.673Z,2.22
2022-12-20T21:28:46.624Z,1.90
2022-12-20T21:31:17.817Z,1.98
2022-12-20T21:33:46.175Z,1.67
2022-12-20T21:36:15.624Z,1.42
2022-12-20T21:38:43.833Z,2.15
2022-12-20T21:41:13.267Z,1.93
2022-12-20T21:43:41.105Z,2.10
2022-12-20T21:46:11.252Z,1.87
2022-12-20T21:48:42.152Z,1.70
2022-12-20T21:51:11.538Z,1.90
2022-12-20T21:53:43.423Z,1.60
2022-12-20T21:56:11.737Z,1.77
2022-12-20T21:58:39.535Z,1.80
2022-12-20T22:01:08.177Z,1.75
2022-12-20T22:03:36.853Z,1.80
2022-12-20T22:06:06.528Z,2.10
2022-12-20T22:08:35.291Z,1.90
2022-12-20T22:11:05.128Z,1.85
2022-12-20T22:13:40.486Z,1.48
2022-12-20T22:16:09.706Z,1.70
2022-12-20T22:18:38.063Z,1.60
2022-12-20T22:21:09.226Z,1.80
2022-12-20T22:23:38.139Z,1.80
2022-12-20T22:26:07.197Z,2.42
2022-12-20T22:28:35.134Z,1.98
2022-12-20T22:31:07.491Z,2.20
2022-12-20T22:33:35.624Z,2.17
2022-12-20T22:36:03.599Z,2.10
2022-12-20T22:38:32.854Z,2.30
2022-12-20T22:41:07.962Z,2.17
2022-12-20T22:43:35.656Z,2.70
2022-12-20T22:46:03.737Z,2.67
2022-12-20T22:48:32.030Z,2.60
2022-12-20T22:51:00.471Z,2.65
2022-12-20T22:53:28.592Z,3.22
2022-12-20T22:55:57.710Z,2.67
2022-12-20T22:58:25.543Z,2.83
2022-12-20T23:00:53.304Z,2.50
2022-12-20T23:03:21.238Z,2.80
2022-12-20T23:05:53.055Z,2.60
2022-12-20T23:08:21.250Z,2.88
2022-12-20T23:11:06.644Z,2.72
2022-12-20T23:13:53.248Z,2.13
2022-12-20T23:16:21.294Z,2.70
2022-12-20T23:18:49.028Z,2.47
2022-12-20T23:21:34.568Z,2.47
2022-12-20T23:24:02.304Z,2.47
2022-12-20T23:26:30.042Z,2.30
2022-12-20T23:28:59.169Z,2.75
2022-12-20T23:31:26.885Z,3.00
2022-12-20T23:33:54.621Z,2.30
2022-12-20T23:36:22.354Z,2.30
2022-12-20T23:38:50.153Z,2.30
2022-12-20T23:41:17.951Z,2.47
2022-12-20T23:43:45.706Z,2.57
2022-12-20T23:46:16.627Z,2.30
2022-12-20T23:48:44.761Z,2.47
2022-12-20T23:51:12.605Z,2.50
2022-12-20T23:53:40.523Z,2.20
2022-12-20T23:56:10.806Z,2.17
2022-12-20T23:58:39.169Z,2.15
